Relax — ILWX2 — position and weather

sailwx.info

Track history (hours):
 
Tides and Currents Weather Stations Pressure Air Temp Water Temp Dewpoint Dewpoint Depression Visibility Wind Speed Wind Dir Waves Ship Positions

Relax

Last reported at 2018-Apr-25 10:08 UTC. Time now 2018-Apr-25 10:48 UTC.
Position N 40°34' E 014°14'.

MMSI: 247277800.

Date/timePositionNaut miles runAvg speedWind from/ knotsBaromVisibWave heightAir tempDewpointWater temp
2018-Apr-25 10:08N 40°34' E 014°14'0 0.0
2018-Apr-25 09:50N 40°34' E 014°14'0 0.0
2018-Apr-25 09:23N 40°34' E 014°14'0 0.6
2018-Apr-25 08:49N 40°33' E 014°14'617.6
2018-Apr-25 08:30N 40°34' E 014°22'711.1
2018-Apr-25 07:55N 40°37' E 014°29'1 0.0
2018-Apr-23 15:27N 40°37' E 014°31'4 7.9
2018-Apr-23 15:00N 40°35' E 014°27'911.2
2018-Apr-23 14:10N 40°34' E 014°14'0 1.2
2018-Apr-23 13:56N 40°34' E 014°14'0 0.0
2018-Apr-23 13:26N 40°34' E 014°14'0 0.0
2018-Apr-23 12:53N 40°34' E 014°14'0 0.0
2018-Apr-23 12:23N 40°34' E 014°14'0 0.0
2018-Apr-23 11:29N 40°34' E 014°14'0 0.0
2018-Apr-23 10:59N 40°34' E 014°14'0 0.0
2018-Apr-23 10:29N 40°34' E 014°14'0 0.0
2018-Apr-23 09:59N 40°34' E 014°14'0 0.0
2018-Apr-23 09:29N 40°34' E 014°14'2 2.0
2018-Apr-23 08:43N 40°34' E 014°16'518.5
2018-Apr-23 08:28N 40°34' E 014°22'611.0
2018-Apr-23 07:53N 40°37' E 014°29'1 0.0
2018-Apr-21 15:25N 40°37' E 014°31'3 8.1
2018-Apr-21 15:00N 40°35' E 014°27'911.7
2018-Apr-21 14:12N 40°33' E 014°15'0 1.0
2018-Apr-21 13:51N 40°34' E 014°14'0 0.0
2018-Apr-21 12:42N 40°34' E 014°14'0 0.0
2018-Apr-21 11:27N 40°34' E 014°14'0 0.0
2018-Apr-21 10:42N 40°34' E 014°14'0 0.0
2018-Apr-21 09:05N 40°34' E 014°14'6 8.7
2018-Apr-21 08:26N 40°34' E 014°22'711.9
2018-Apr-21 07:52N 40°37' E 014°29'1 0.0
2018-Apr-19 15:23N 40°37' E 014°30'3 8.3
2018-Apr-19 15:00N 40°36' E 014°26'917.2
2018-Apr-19 14:28N 40°33' E 014°14'0 0.2
2018-Apr-19 12:30N 40°34' E 014°14'0 0.0
2018-Apr-19 11:51N 40°34' E 014°14'0 0.0
2018-Apr-19 09:08N 40°34' E 014°14'2 4.3
2018-Apr-19 08:44N 40°34' E 014°16'518.0
2018-Apr-19 08:28N 40°34' E 014°23'611.2
2018-Apr-19 07:56N 40°37' E 014°30'1 0.1
2018-Apr-18 15:28N 40°36' E 014°31'4 9.3
2018-Apr-18 15:00N 40°35' E 014°26'817.0
2018-Apr-18 14:30N 40°33' E 014°15'0 0.6
2018-Apr-18 13:52N 40°34' E 014°14'0 0.0
2018-Apr-18 13:25N 40°34' E 014°14'0 0.0
2018-Apr-18 12:40N 40°34' E 014°14'0 0.0
2018-Apr-18 12:25N 40°34' E 014°14'0 0.0
2018-Apr-18 11:52N 40°34' E 014°14'0 0.0
2018-Apr-18 11:28N 40°34' E 014°14'0 0.0
2018-Apr-18 10:58N 40°34' E 014°14'0 0.0
2018-Apr-18 10:28N 40°34' E 014°14'0 0.0
2018-Apr-18 09:58N 40°34' E 014°14'0 0.0
2018-Apr-18 09:25N 40°34' E 014°14'6 6.9
2018-Apr-18 08:36N 40°34' E 014°22'218.8
2018-Apr-18 08:30N 40°34' E 014°24'5 9.0
2018-Apr-18 07:55N 40°37' E 014°29'  
2018-Apr-15 15:43N 40°36' E 014°29'417.7
2018-Apr-15 15:30N 40°35' E 014°24'812.3
2018-Apr-15 14:52N 40°33' E 014°14'0 0.1
2018-Apr-15 12:36N 40°34' E 014°14'0 0.2
2018-Apr-15 12:24N 40°34' E 014°14'0 0.0
2018-Apr-15 11:48N 40°34' E 014°14'0 0.0
2018-Apr-15 11:18N 40°34' E 014°14'0 0.0
2018-Apr-15 11:00N 40°34' E 014°14'0 0.0
2018-Apr-15 10:18N 40°34' E 014°14'  
Track history (hours):
 
Tides and Currents Weather Stations Pressure Air Temp Water Temp Dewpoint Dewpoint Depression Visibility Wind Speed Wind Dir Waves Ship Positions

Relax

Last reported at 2018-Apr-25 10:08 UTC. Time now 2018-Apr-25 10:48 UTC.
Position N 40°34' E 014°14'.

MMSI: 247277800.

Date/timePositionNaut miles runAvg speedWind from/ knotsBaromVisibWave heightAir tempDewpointWater temp
2018-Apr-25 10:08N 40°34' E 014°14'0 0.0
2018-Apr-25 09:50N 40°34' E 014°14'0 0.0
2018-Apr-25 09:23N 40°34' E 014°14'0 0.6
2018-Apr-25 08:49N 40°33' E 014°14'617.6
2018-Apr-25 08:30N 40°34' E 014°22'711.1
2018-Apr-25 07:55N 40°37' E 014°29'1 0.0
2018-Apr-23 15:27N 40°37' E 014°31'4 7.9
2018-Apr-23 15:00N 40°35' E 014°27'911.2
2018-Apr-23 14:10N 40°34' E 014°14'0 1.2
2018-Apr-23 13:56N 40°34' E 014°14'0 0.0
2018-Apr-23 13:26N 40°34' E 014°14'0 0.0
2018-Apr-23 12:53N 40°34' E 014°14'0 0.0
2018-Apr-23 12:23N 40°34' E 014°14'0 0.0
2018-Apr-23 11:29N 40°34' E 014°14'0 0.0
2018-Apr-23 10:59N 40°34' E 014°14'0 0.0
2018-Apr-23 10:29N 40°34' E 014°14'0 0.0
2018-Apr-23 09:59N 40°34' E 014°14'0 0.0
2018-Apr-23 09:29N 40°34' E 014°14'2 2.0
2018-Apr-23 08:43N 40°34' E 014°16'518.5
2018-Apr-23 08:28N 40°34' E 014°22'611.0
2018-Apr-23 07:53N 40°37' E 014°29'1 0.0
2018-Apr-21 15:25N 40°37' E 014°31'3 8.1
2018-Apr-21 15:00N 40°35' E 014°27'911.7
2018-Apr-21 14:12N 40°33' E 014°15'0 1.0
2018-Apr-21 13:51N 40°34' E 014°14'0 0.0
2018-Apr-21 12:42N 40°34' E 014°14'0 0.0
2018-Apr-21 11:27N 40°34' E 014°14'0 0.0
2018-Apr-21 10:42N 40°34' E 014°14'0 0.0
2018-Apr-21 09:05N 40°34' E 014°14'6 8.7
2018-Apr-21 08:26N 40°34' E 014°22'711.9
2018-Apr-21 07:52N 40°37' E 014°29'1 0.0
2018-Apr-19 15:23N 40°37' E 014°30'3 8.3
2018-Apr-19 15:00N 40°36' E 014°26'917.2
2018-Apr-19 14:28N 40°33' E 014°14'0 0.2
2018-Apr-19 12:30N 40°34' E 014°14'0 0.0
2018-Apr-19 11:51N 40°34' E 014°14'0 0.0
2018-Apr-19 09:08N 40°34' E 014°14'2 4.3
2018-Apr-19 08:44N 40°34' E 014°16'518.0
2018-Apr-19 08:28N 40°34' E 014°23'611.2
2018-Apr-19 07:56N 40°37' E 014°30'1 0.1
2018-Apr-18 15:28N 40°36' E 014°31'4 9.3
2018-Apr-18 15:00N 40°35' E 014°26'817.0
2018-Apr-18 14:30N 40°33' E 014°15'0 0.6
2018-Apr-18 13:52N 40°34' E 014°14'0 0.0
2018-Apr-18 13:25N 40°34' E 014°14'0 0.0
2018-Apr-18 12:40N 40°34' E 014°14'0 0.0
2018-Apr-18 12:25N 40°34' E 014°14'0 0.0
2018-Apr-18 11:52N 40°34' E 014°14'0 0.0
2018-Apr-18 11:28N 40°34' E 014°14'0 0.0
2018-Apr-18 10:58N 40°34' E 014°14'0 0.0
2018-Apr-18 10:28N 40°34' E 014°14'0 0.0
2018-Apr-18 09:58N 40°34' E 014°14'0 0.0
2018-Apr-18 09:25N 40°34' E 014°14'6 6.9
2018-Apr-18 08:36N 40°34' E 014°22'218.8
2018-Apr-18 08:30N 40°34' E 014°24'5 9.0
2018-Apr-18 07:55N 40°37' E 014°29'  
2018-Apr-15 15:43N 40°36' E 014°29'417.7
2018-Apr-15 15:30N 40°35' E 014°24'812.3
2018-Apr-15 14:52N 40°33' E 014°14'0 0.1
2018-Apr-15 12:36N 40°34' E 014°14'0 0.2
2018-Apr-15 12:24N 40°34' E 014°14'0 0.0
2018-Apr-15 11:48N 40°34' E 014°14'0 0.0
2018-Apr-15 11:18N 40°34' E 014°14'0 0.0
2018-Apr-15 11:00N 40°34' E 014°14'0 0.0
2018-Apr-15 10:18N 40°34' E 014°14'  

Dump ship's entire track history